createdAt,value
2018-09-24T00:01:08.869Z,97795.09
2018-09-24T00:03:37.460Z,97797.20
2018-09-24T00:06:06.146Z,97804.08
2018-09-24T00:08:34.730Z,97814.66
2018-09-24T00:11:03.277Z,97813.02
2018-09-24T00:13:31.867Z,97814.66
2018-09-24T00:16:00.469Z,97819.16
2018-09-24T00:18:29.058Z,97826.50
2018-09-24T00:20:57.674Z,97835.03
2018-09-24T00:23:26.297Z,97841.62
2018-09-24T00:25:54.881Z,97849.41
2018-09-24T00:28:23.582Z,97849.82
2018-09-24T00:30:52.174Z,97862.70
2018-09-24T00:33:20.825Z,97852.33
2018-09-24T00:35:49.430Z,97866.52
2018-09-24T00:38:18.037Z,97871.08
2018-09-24T00:40:46.650Z,97869.46
2018-09-24T00:43:16.212Z,97872.07
2018-09-24T00:45:44.816Z,97877.20
2018-09-24T00:48:14.162Z,97874.40
2018-09-24T00:50:42.710Z,97877.75
2018-09-24T00:53:11.331Z,97868.39
2018-09-24T00:55:39.915Z,97870.81
2018-09-24T00:58:08.502Z,97868.84
2018-09-24T01:00:37.101Z,97870.97
2018-09-24T01:03:05.786Z,97874.36
2018-09-24T01:05:34.349Z,97875.26
2018-09-24T01:08:03.014Z,97880.05
2018-09-24T01:10:31.587Z,97881.52
2018-09-24T01:13:00.178Z,97890.26
2018-09-24T01:15:28.742Z,97893.55
2018-09-24T01:17:57.341Z,97898.96
2018-09-24T01:20:25.954Z,97903.62
2018-09-24T01:22:54.625Z,97910.23
2018-09-24T01:25:23.185Z,97915.23
2018-09-24T01:27:51.804Z,97922.36
2018-09-24T01:30:20.402Z,97925.52
2018-09-24T01:32:48.997Z,97926.34
2018-09-24T01:35:17.568Z,97932.12
2018-09-24T01:37:46.154Z,97940.48
2018-09-24T01:40:14.717Z,97943.67
2018-09-24T01:42:43.315Z,97949.02
2018-09-24T01:45:11.866Z,97953.41
2018-09-24T01:47:40.484Z,97950.53
2018-09-24T01:50:09.158Z,97959.71
2018-09-24T01:52:37.734Z,97973.83
2018-09-24T01:55:06.317Z,97971.08
2018-09-24T01:57:34.890Z,97972.48
2018-09-24T02:00:03.532Z,97982.98
2018-09-24T02:02:32.130Z,97986.69
2018-09-24T02:05:00.796Z,97989.56
2018-09-24T02:07:29.546Z,97993.88
2018-09-24T02:09:58.225Z,97992.91
2018-09-24T02:12:26.814Z,98002.66
2018-09-24T02:14:55.353Z,98001.95
2018-09-24T02:17:24.313Z,97995.20
2018-09-24T02:19:53.021Z,98002.92
2018-09-24T02:22:27.425Z,98008.37
2018-09-24T02:24:57.264Z,98016.68
2018-09-24T02:27:26.661Z,98015.02
2018-09-24T02:29:55.801Z,98021.58
2018-09-24T02:32:24.385Z,98020.06
2018-09-24T02:34:55.502Z,98025.06
2018-09-24T02:37:24.057Z,98031.81
2018-09-24T02:39:52.733Z,98035.09
2018-09-24T02:42:21.288Z,98040.30
2018-09-24T02:44:58.838Z,98040.11
2018-09-24T02:47:32.601Z,98042.13
2018-09-24T02:50:02.795Z,98040.57
2018-09-24T02:52:31.375Z,98042.41
2018-09-24T02:54:59.946Z,98046.12
2018-09-24T02:57:29.637Z,98044.51
2018-09-24T02:59:58.266Z,98052.28
2018-09-24T03:02:26.832Z,98063.06
2018-09-24T03:04:56.032Z,98061.09
2018-09-24T03:07:24.906Z,98072.77
2018-09-24T03:09:53.489Z,98071.43
2018-09-24T03:12:22.341Z,98072.13
2018-09-24T03:14:50.985Z,98073.27
2018-09-24T03:17:20.170Z,98076.25
2018-09-24T03:19:48.756Z,98075.43
2018-09-24T03:22:21.526Z,98087.23
2018-09-24T03:24:50.310Z,98089.80
2018-09-24T03:27:18.870Z,98090.47
2018-09-24T03:29:47.453Z,98093.98
2018-09-24T03:32:16.023Z,98107.09
2018-09-24T03:34:44.603Z,98106.95
2018-09-24T03:37:13.159Z,98105.63
2018-09-24T03:39:41.738Z,98102.67
2018-09-24T03:42:10.307Z,98106.34
2018-09-24T03:44:38.917Z,98109.38
2018-09-24T03:47:07.473Z,98113.73
2018-09-24T03:49:36.075Z,98110.16
2018-09-24T03:52:04.665Z,98115.66
2018-09-24T03:54:33.248Z,98120.02
2018-09-24T03:57:01.865Z,98125.37
2018-09-24T03:59:30.448Z,98124.58
2018-09-24T04:01:59.153Z,98126.30
2018-09-24T04:04:32.855Z,98126.98
2018-09-24T04:07:06.715Z,98139.29
2018-09-24T04:09:40.595Z,98149.25
2018-09-24T04:12:14.316Z,98150.44
2018-09-24T04:14:48.195Z,98156.69
2018-09-24T04:17:22.542Z,98163.59
2018-09-24T04:19:56.246Z,98161.84
2018-09-24T04:22:29.923Z,98157.72
2018-09-24T04:25:03.787Z,98164.79
2018-09-24T04:27:38.411Z,98168.62
2018-09-24T04:30:12.191Z,98174.91
2018-09-24T04:32:45.807Z,98178.36
2018-09-24T04:35:19.669Z,98184.17
2018-09-24T04:37:55.422Z,98185.84
2018-09-24T04:40:29.106Z,98181.30
2018-09-24T04:43:02.757Z,98185.30
2018-09-24T04:45:36.591Z,98188.09
2018-09-24T04:48:11.122Z,98190.96
2018-09-24T04:50:44.987Z,98194.13
2018-09-24T04:53:19.135Z,98207.59
2018-09-24T04:55:52.829Z,98208.81
2018-09-24T04:58:27.154Z,98207.78
2018-09-24T05:01:01.317Z,98214.69
2018-09-24T05:03:35.100Z,98218.17
2018-09-24T05:06:08.934Z,98232.30
2018-09-24T05:08:43.377Z,98235.68
2018-09-24T05:11:17.077Z,98237.80
2018-09-24T05:13:50.749Z,98235.61
2018-09-24T05:16:24.374Z,98248.66
2018-09-24T05:18:59.143Z,98249.84
2018-09-24T05:21:32.910Z,98252.40
2018-09-24T05:24:06.637Z,98252.40
2018-09-24T05:26:40.277Z,98249.67
2018-09-24T05:29:14.966Z,98250.10
2018-09-24T05:31:48.948Z,98252.27
2018-09-24T05:34:22.779Z,98256.07
2018-09-24T05:36:56.601Z,98262.98
2018-09-24T05:39:38.164Z,98259.05
2018-09-24T05:42:11.994Z,98273.36
2018-09-24T05:44:45.658Z,98273.78
2018-09-24T05:47:19.397Z,98271.52
2018-09-24T05:49:54.225Z,98277.15
2018-09-24T05:52:27.983Z,98276.94
2018-09-24T05:55:01.893Z,98273.75
2018-09-24T05:57:35.746Z,98286.74
2018-09-24T06:00:10.174Z,98292.02
2018-09-24T06:02:43.999Z,98298.53
2018-09-24T06:05:17.716Z,98302.95
2018-09-24T06:07:51.546Z,98303.52
2018-09-24T06:10:26.175Z,98301.09
2018-09-24T06:12:59.974Z,98303.53
2018-09-24T06:15:33.772Z,98316.55
2018-09-24T06:18:07.510Z,98319.31
2018-09-24T06:20:42.202Z,98326.06
2018-09-24T06:23:15.790Z,98336.51
2018-09-24T06:25:49.375Z,98330.23
2018-09-24T06:28:23.258Z,98320.92
2018-09-24T06:30:57.590Z,98321.95
2018-09-24T06:33:31.403Z,98315.16
2018-09-24T06:36:05.069Z,98326.44
2018-09-24T06:38:38.772Z,98333.25
2018-09-24T06:41:13.463Z,98336.81
2018-09-24T06:43:47.262Z,98344.47
2018-09-24T06:46:20.828Z,98349.86
2018-09-24T06:48:54.473Z,98348.20
2018-09-24T06:51:29.221Z,98355.23
2018-09-24T06:54:03.090Z,98361.39
2018-09-24T06:56:36.995Z,98362.46
2018-09-24T06:59:11.114Z,98378.98
2018-09-24T07:01:46.005Z,98372.45
2018-09-24T07:04:19.770Z,98370.22
2018-09-24T07:06:53.585Z,98361.34
2018-09-24T07:09:27.454Z,98375.64
2018-09-24T07:12:01.822Z,98377.61
2018-09-24T07:14:35.581Z,98386.97
2018-09-24T07:17:09.427Z,98376.78
2018-09-24T07:19:43.139Z,98397.06
2018-09-24T07:22:17.764Z,98407.70
2018-09-24T07:24:51.575Z,98402.09
2018-09-24T07:27:25.316Z,98406.30
2018-09-24T07:29:59.157Z,98413.22
2018-09-24T07:32:33.569Z,98406.67
2018-09-24T07:35:07.395Z,98420.04
2018-09-24T07:37:41.016Z,98422.87
2018-09-24T07:40:14.769Z,98420.45
2018-09-24T07:42:49.266Z,98424.44
2018-09-24T07:45:23.138Z,98423.13
2018-09-24T07:47:57.021Z,98426.98
2018-09-24T07:50:30.877Z,98433.61
2018-09-24T07:53:05.446Z,98432.50
2018-09-24T07:55:39.309Z,98440.38
2018-09-24T07:58:13.112Z,98437.63
2018-09-24T08:00:46.805Z,98439.66
2018-09-24T08:03:21.788Z,98451.72
2018-09-24T08:05:55.618Z,98446.52
2018-09-24T08:08:29.317Z,98463.84
2018-09-24T08:11:02.905Z,98462.82
2018-09-24T08:13:37.003Z,98461.25
2018-09-24T08:16:10.842Z,98454.60
2018-09-24T08:18:44.653Z,98462.84
2018-09-24T08:21:18.338Z,98468.16
2018-09-24T08:23:52.838Z,98482.36
2018-09-24T08:26:26.486Z,98490.45
2018-09-24T08:29:00.330Z,98498.22
2018-09-24T08:31:33.998Z,98503.05
2018-09-24T08:34:08.350Z,98514.33
2018-09-24T08:36:42.031Z,98506.57
2018-09-24T08:39:15.741Z,98504.91
2018-09-24T08:41:49.434Z,98501.52
2018-09-24T08:44:24.278Z,98497.50
2018-09-24T08:46:58.139Z,98506.73
2018-09-24T08:49:31.858Z,98508.20
2018-09-24T08:52:05.561Z,98505.80
2018-09-24T08:54:39.434Z,98512.19
2018-09-24T08:57:13.275Z,98503.59
2018-09-24T08:59:46.928Z,98506.70
2018-09-24T09:02:20.709Z,98523.36
2018-09-24T09:04:55.821Z,98501.60
2018-09-24T09:07:29.393Z,98514.23
2018-09-24T09:10:03.227Z,98518.79
2018-09-24T09:12:37.067Z,98504.05
2018-09-24T09:15:11.993Z,98517.25
2018-09-24T09:17:45.810Z,98521.02
2018-09-24T09:20:19.441Z,98539.94
2018-09-24T09:22:53.154Z,98532.30
2018-09-24T09:25:27.703Z,98516.67
2018-09-24T09:28:01.270Z,98505.70
2018-09-24T09:30:34.905Z,98507.23
2018-09-24T09:33:08.611Z,98509.39
2018-09-24T09:35:43.453Z,98507.63
2018-09-24T09:38:16.976Z,98507.72
2018-09-24T09:40:50.717Z,98515.08
2018-09-24T09:43:24.516Z,98507.48
2018-09-24T09:45:59.756Z,98530.09
2018-09-24T09:48:33.446Z,98525.67
2018-09-24T09:51:08.191Z,98521.89
2018-09-24T09:53:41.852Z,98515.80
2018-09-24T09:56:16.544Z,98524.45
2018-09-24T09:58:50.368Z,98527.73
2018-09-24T10:01:24.007Z,98528.34
2018-09-24T10:03:57.685Z,98526.44
2018-09-24T10:06:32.107Z,98527.34
2018-09-24T10:09:05.854Z,98524.30
2018-09-24T10:11:39.490Z,98533.94
2018-09-24T10:14:13.188Z,98531.53
2018-09-24T10:16:48.651Z,98542.77
2018-09-24T10:19:22.364Z,98511.41
2018-09-24T10:21:56.223Z,98525.39
2018-09-24T10:24:29.946Z,98522.31
2018-09-24T10:27:04.113Z,98523.56
2018-09-24T10:29:37.982Z,98527.27
2018-09-24T10:32:11.723Z,98535.78
2018-09-24T10:34:45.482Z,98517.73
2018-09-24T10:37:19.894Z,98518.03
2018-09-24T10:39:53.634Z,98521.41
2018-09-24T10:42:27.565Z,98528.48
2018-09-24T10:45:01.423Z,98519.22
2018-09-24T10:47:36.237Z,98530.69
2018-09-24T10:50:10.095Z,98527.67
2018-09-24T10:52:43.896Z,98526.95
2018-09-24T10:55:17.684Z,98534.20
2018-09-24T10:57:52.222Z,98521.71
2018-09-24T11:00:26.041Z,98510.94
2018-09-24T11:02:59.663Z,98520.28
2018-09-24T11:05:33.498Z,98526.20
2018-09-24T11:08:11.470Z,98520.03
2018-09-24T11:10:45.250Z,98510.95
2018-09-24T11:13:19.029Z,98512.61
2018-09-24T11:15:52.778Z,98522.13
2018-09-24T11:18:26.862Z,98518.22
2018-09-24T11:21:00.514Z,98517.72
2018-09-24T11:23:34.297Z,98510.89
2018-09-24T11:26:08.035Z,98517.05
2018-09-24T11:28:42.295Z,98519.88
2018-09-24T11:31:16.125Z,98511.21
2018-09-24T11:33:50.002Z,98509.16
2018-09-24T11:36:23.859Z,98520.84
2018-09-24T11:38:58.229Z,98520.16
2018-09-24T11:41:32.168Z,98533.14
2018-09-24T11:44:05.958Z,98537.27
2018-09-24T11:46:39.852Z,98536.96
2018-09-24T11:49:14.131Z,98528.80
2018-09-24T11:51:47.963Z,98529.30
2018-09-24T11:54:21.806Z,98539.36
2018-09-24T11:56:55.514Z,98536.42
2018-09-24T11:59:30.054Z,98543.75
2018-09-24T12:02:03.972Z,98552.94
2018-09-24T12:04:37.741Z,98561.63
2018-09-24T12:07:11.987Z,98560.39
2018-09-24T12:09:46.878Z,98564.77
2018-09-24T12:12:20.637Z,98568.45
2018-09-24T12:14:54.491Z,98566.83
2018-09-24T12:17:28.166Z,98565.46
2018-09-24T12:20:02.773Z,98565.55
2018-09-24T12:22:36.446Z,98563.73
2018-09-24T12:25:10.366Z,98554.47
2018-09-24T12:27:44.182Z,98559.05
2018-09-24T12:30:18.694Z,98554.95
2018-09-24T12:32:52.515Z,98548.59
2018-09-24T12:35:26.326Z,98531.64
2018-09-24T12:38:00.118Z,98530.05
2018-09-24T12:40:35.105Z,98534.73
2018-09-24T12:43:08.807Z,98535.05
2018-09-24T12:45:42.647Z,98533.70
2018-09-24T12:48:16.484Z,98529.37
2018-09-24T12:50:51.047Z,98523.56
2018-09-24T12:53:24.864Z,98527.69
2018-09-24T12:55:58.583Z,98532.36
2018-09-24T12:58:32.592Z,98522.81
2018-09-24T13:01:06.806Z,98523.70
2018-09-24T13:03:40.609Z,98518.80
2018-09-24T13:06:14.450Z,98516.48
2018-09-24T13:08:48.233Z,98514.13
2018-09-24T13:11:22.670Z,98520.81
2018-09-24T13:13:56.349Z,98518.80
2018-09-24T13:16:30.086Z,98505.57
2018-09-24T13:19:03.914Z,98509.25
2018-09-24T13:21:38.333Z,98498.98
2018-09-24T13:24:12.206Z,98501.97
2018-09-24T13:26:45.967Z,98503.68
2018-09-24T13:29:19.634Z,98506.70
2018-09-24T13:31:54.181Z,98510.59
2018-09-24T13:34:27.939Z,98506.42
2018-09-24T13:37:01.754Z,98522.53
2018-09-24T13:39:35.645Z,98517.96
2018-09-24T13:42:09.861Z,98516.33
2018-09-24T13:44:43.678Z,98512.56
2018-09-24T13:47:17.399Z,98494.66
2018-09-24T13:49:51.180Z,98501.81
2018-09-24T13:52:25.434Z,98496.00
2018-09-24T13:54:59.098Z,98486.37
2018-09-24T13:57:32.830Z,98486.43
2018-09-24T14:00:06.682Z,98490.89
2018-09-24T14:02:41.767Z,98491.81
2018-09-24T14:05:15.426Z,98492.23
2018-09-24T14:07:49.258Z,98496.46
2018-09-24T14:10:23.118Z,98494.02
2018-09-24T14:12:58.221Z,98501.25
2018-09-24T14:15:31.913Z,98493.32
2018-09-24T14:18:09.659Z,98495.38
2018-09-24T14:20:43.301Z,98498.36
2018-09-24T14:23:17.447Z,98503.53
2018-09-24T14:25:51.236Z,98502.33
2018-09-24T14:28:24.893Z,98505.69
2018-09-24T14:30:58.678Z,98508.50
2018-09-24T14:33:33.177Z,98509.97
2018-09-24T14:36:06.909Z,98515.92
2018-09-24T14:38:41.090Z,98523.48
2018-09-24T14:41:14.827Z,98521.20
2018-09-24T14:43:49.518Z,98520.83
2018-09-24T14:46:23.329Z,98525.22
2018-09-24T14:48:56.894Z,98526.54
2018-09-24T14:51:30.609Z,98517.05
2018-09-24T14:54:04.835Z,98500.27
2018-09-24T14:56:38.569Z,98507.34
2018-09-24T14:59:12.241Z,98500.58
2018-09-24T15:01:46.070Z,98504.42
2018-09-24T15:04:20.613Z,98509.22
2018-09-24T15:06:54.714Z,98512.91
2018-09-24T15:09:28.493Z,98515.17
2018-09-24T15:12:02.317Z,98533.78
2018-09-24T15:14:36.550Z,98526.56
2018-09-24T15:17:10.290Z,98533.43
2018-09-24T15:19:44.361Z,98528.04
2018-09-24T15:22:18.067Z,98532.66
2018-09-24T15:24:52.719Z,98531.70
2018-09-24T15:27:26.470Z,98530.73
2018-09-24T15:30:00.303Z,98534.17
2018-09-24T15:32:35.498Z,98533.12
2018-09-24T15:35:10.195Z,98530.23
2018-09-24T15:37:43.946Z,98534.73
2018-09-24T15:40:17.809Z,98539.39
2018-09-24T15:42:51.510Z,98529.95
2018-09-24T15:45:25.948Z,98515.52
2018-09-24T15:47:59.685Z,98529.39
2018-09-24T15:50:33.522Z,98525.71
2018-09-24T15:53:07.269Z,98532.72
2018-09-24T15:55:41.262Z,98537.93
2018-09-24T15:58:19.331Z,98533.59
2018-09-24T16:00:53.158Z,98542.48
2018-09-24T16:03:26.978Z,98556.40
2018-09-24T16:06:01.376Z,98552.84
2018-09-24T16:08:35.265Z,98572.25
2018-09-24T16:11:09.159Z,98567.06
2018-09-24T16:13:43.046Z,98562.77
2018-09-24T16:16:17.459Z,98558.76
2018-09-24T16:18:51.621Z,98554.09
2018-09-24T16:21:25.281Z,98543.61
2018-09-24T16:23:59.026Z,98550.31
2018-09-24T16:26:34.646Z,98544.52
2018-09-24T16:29:08.379Z,98544.48
2018-09-24T16:31:42.251Z,98544.98
2018-09-24T16:34:16.047Z,98547.37
2018-09-24T16:36:50.837Z,98551.21
2018-09-24T16:39:29.510Z,98553.47
2018-09-24T16:42:03.302Z,98557.72
2018-09-24T16:44:36.977Z,98560.41
2018-09-24T16:47:11.982Z,98556.44
2018-09-24T16:49:45.568Z,98567.22
2018-09-24T16:52:19.246Z,98574.78
2018-09-24T16:54:52.990Z,98571.11
2018-09-24T16:57:27.350Z,98578.72
2018-09-24T17:00:01.080Z,98579.17
2018-09-24T17:02:34.802Z,98582.15
2018-09-24T17:05:08.545Z,98578.09
2018-09-24T17:07:43.673Z,98576.57
2018-09-24T17:10:17.271Z,98581.41
2018-09-24T17:12:50.993Z,98583.08
2018-09-24T17:15:24.828Z,98586.52
2018-09-24T17:17:58.496Z,98591.75
2018-09-24T17:20:32.222Z,98591.73
2018-09-24T17:23:05.904Z,98589.95
2018-09-24T17:25:39.656Z,98595.22
2018-09-24T17:28:13.975Z,98595.45
2018-09-24T17:30:47.790Z,98597.11
2018-09-24T17:33:21.472Z,98602.80
2018-09-24T17:35:55.288Z,98607.22
2018-09-24T17:38:29.766Z,98609.02
2018-09-24T17:41:03.489Z,98611.81
2018-09-24T17:43:37.161Z,98611.81
2018-09-24T17:46:10.891Z,98612.63
2018-09-24T17:48:45.937Z,98619.83
2018-09-24T17:51:19.661Z,98626.03
2018-09-24T17:53:53.489Z,98622.41
2018-09-24T17:56:27.693Z,98627.05
2018-09-24T17:59:02.119Z,98620.77
2018-09-24T18:01:35.851Z,98632.41
2018-09-24T18:04:09.547Z,98628.37
2018-09-24T18:06:43.262Z,98637.25
2018-09-24T18:09:18.159Z,98639.80
2018-09-24T18:11:51.989Z,98636.49
2018-09-24T18:14:25.739Z,98636.70
2018-09-24T18:16:59.412Z,98642.86
2018-09-24T18:19:33.434Z,98646.51
2018-09-24T18:22:07.294Z,98646.92
2018-09-24T18:24:40.971Z,98657.17
2018-09-24T18:27:14.629Z,98660.50
2018-09-24T18:29:49.797Z,98664.98
2018-09-24T18:32:23.502Z,98667.19
2018-09-24T18:34:57.242Z,98673.94
2018-09-24T18:37:31.036Z,98679.02
2018-09-24T18:40:05.904Z,98680.62
2018-09-24T18:42:39.741Z,98683.98
2018-09-24T18:45:13.473Z,98691.47
2018-09-24T18:47:47.145Z,98691.09
2018-09-24T18:50:21.418Z,98691.56
2018-09-24T18:52:55.247Z,98693.73
2018-09-24T18:55:29.091Z,98694.17
2018-09-24T18:58:02.927Z,98697.54
2018-09-24T19:00:37.691Z,98702.88
2018-09-24T19:03:11.518Z,98704.30
2018-09-24T19:05:45.153Z,98714.41
2018-09-24T19:08:19.098Z,98722.54
2018-09-24T19:10:53.278Z,98721.13
2018-09-24T19:13:26.987Z,98715.95
2018-09-24T19:16:00.678Z,98716.48
2018-09-24T19:18:34.663Z,98720.70
2018-09-24T19:21:09.562Z,98717.09
2018-09-24T19:23:43.407Z,98729.69
2018-09-24T19:26:17.168Z,98735.37
2018-09-24T19:28:51.530Z,98734.16
2018-09-24T19:31:25.927Z,98738.66
2018-09-24T19:33:59.677Z,98739.02
2018-09-24T19:36:33.461Z,98742.94
2018-09-24T19:39:07.241Z,98751.46
2018-09-24T19:41:42.207Z,98748.30
2018-09-24T19:44:15.851Z,98757.06
2018-09-24T19:46:49.611Z,98756.97
2018-09-24T19:49:23.386Z,98757.78
2018-09-24T19:51:59.138Z,98766.02
2018-09-24T19:54:32.992Z,98763.12
2018-09-24T19:57:06.662Z,98766.02
2018-09-24T19:59:40.361Z,98765.88
2018-09-24T20:02:15.162Z,98774.56
2018-09-24T20:04:48.915Z,98764.47
2018-09-24T20:07:22.742Z,98767.80
2018-09-24T20:09:56.569Z,98774.77
2018-09-24T20:12:30.523Z,98774.05
2018-09-24T20:15:04.386Z,98773.55
2018-09-24T20:17:37.925Z,98770.52
2018-09-24T20:20:11.623Z,98769.19
2018-09-24T20:22:45.490Z,98770.02
2018-09-24T20:25:19.268Z,98771.52
2018-09-24T20:27:53.046Z,98777.09
2018-09-24T20:30:26.927Z,98776.55
2018-09-24T20:33:01.905Z,98783.20
2018-09-24T20:35:35.702Z,98778.34
2018-09-24T20:38:09.399Z,98774.69
2018-09-24T20:40:43.234Z,98774.56
2018-09-24T20:43:17.886Z,98780.27
2018-09-24T20:45:51.577Z,98780.19
2018-09-24T20:48:25.219Z,98780.27
2018-09-24T20:50:59.050Z,98780.31
2018-09-24T20:53:33.727Z,98787.70
2018-09-24T20:56:07.426Z,98793.73
2018-09-24T20:58:41.239Z,98792.90
2018-09-24T21:01:15.130Z,98795.36
2018-09-24T21:03:49.750Z,98804.41
2018-09-24T21:06:23.534Z,98806.54
2018-09-24T21:08:57.269Z,98809.30
2018-09-24T21:11:30.931Z,98805.70
2018-09-24T21:14:05.750Z,98816.41
2018-09-24T21:16:39.382Z,98818.58
2018-09-24T21:19:13.253Z,98823.30
2018-09-24T21:21:46.826Z,98825.02
2018-09-24T21:24:20.850Z,98824.66
2018-09-24T21:26:55.754Z,98822.58
2018-09-24T21:29:29.645Z,98823.78
2018-09-24T21:32:03.268Z,98824.69
2018-09-24T21:34:37.510Z,98831.66
2018-09-24T21:37:11.230Z,98841.45
2018-09-24T21:39:45.019Z,98843.28
2018-09-24T21:42:18.786Z,98839.52
2018-09-24T21:44:52.946Z,98848.82
2018-09-24T21:47:26.649Z,98845.33
2018-09-24T21:50:00.495Z,98848.34
2018-09-24T21:52:34.171Z,98850.63
2018-09-24T21:55:09.026Z,98853.96
2018-09-24T21:57:42.765Z,98858.48
2018-09-24T22:00:16.633Z,98862.28
2018-09-24T22:02:50.438Z,98859.91
2018-09-24T22:05:24.921Z,98856.10
2018-09-24T22:07:58.721Z,98853.42
2018-09-24T22:10:39.394Z,98853.28
2018-09-24T22:13:13.188Z,98842.13
2018-09-24T22:15:47.974Z,98842.92
2018-09-24T22:18:21.642Z,98844.05
2018-09-24T22:20:55.349Z,98847.70
2018-09-24T22:23:28.874Z,98850.15
2018-09-24T22:26:03.717Z,98845.56
2018-09-24T22:28:37.313Z,98858.88
2018-09-24T22:31:11.127Z,98860.88
2018-09-24T22:33:44.903Z,98860.28
2018-09-24T22:36:19.829Z,98857.61
2018-09-24T22:38:53.485Z,98863.41
2018-09-24T22:41:27.170Z,98865.62
2018-09-24T22:44:01.002Z,98859.80
2018-09-24T22:46:35.009Z,98867.81
2018-09-24T22:49:08.809Z,98867.63
2018-09-24T22:51:42.547Z,98866.98
2018-09-24T22:54:16.191Z,98866.15
2018-09-24T22:56:51.273Z,98861.67
2018-09-24T22:59:25.047Z,98865.51
2018-09-24T23:02:03.832Z,98859.36
2018-09-24T23:04:37.507Z,98860.69
2018-09-24T23:07:12.193Z,98854.05
2018-09-24T23:09:45.826Z,98856.36
2018-09-24T23:12:19.515Z,98852.05
2018-09-24T23:14:53.133Z,98857.20
2018-09-24T23:17:27.827Z,98856.38
2018-09-24T23:20:01.721Z,98856.72
2018-09-24T23:22:35.411Z,98859.36
2018-09-24T23:25:09.057Z,98865.65
2018-09-24T23:27:43.521Z,98868.65
2018-09-24T23:30:17.188Z,98874.30
2018-09-24T23:32:50.906Z,98877.29
2018-09-24T23:35:24.672Z,98870.29
2018-09-24T23:38:00.046Z,98879.76
2018-09-24T23:40:33.817Z,98878.44
2018-09-24T23:43:07.473Z,98879.91
2018-09-24T23:45:41.286Z,98887.72
2018-09-24T23:48:16.261Z,98888.71
2018-09-24T23:50:49.978Z,98891.03
2018-09-24T23:53:23.847Z,98877.05
2018-09-24T23:55:57.509Z,98881.86
2018-09-24T23:58:32.034Z,98887.02
